sensor_id;sensor_type;location;lat;lon;timestamp;temperature;humidity
15983;DHT22;14442;50.196;8.096;2023-05-07T00:01:28;23.30;50.60
15983;DHT22;14442;50.196;8.096;2023-05-07T00:03:56;23.30;50.60
15983;DHT22;14442;50.196;8.096;2023-05-07T00:06:23;23.30;50.70
15983;DHT22;14442;50.196;8.096;2023-05-07T00:08:51;23.30;50.70
15983;DHT22;14442;50.196;8.096;2023-05-07T00:11:18;23.30;50.70
15983;DHT22;14442;50.196;8.096;2023-05-07T00:13:45;23.30;50.70
15983;DHT22;14442;50.196;8.096;2023-05-07T00:16:11;23.30;50.70
15983;DHT22;14442;50.196;8.096;2023-05-07T00:18:38;23.30;50.70
15983;DHT22;14442;50.196;8.096;2023-05-07T00:21:06;23.30;50.70
15983;DHT22;14442;50.196;8.096;2023-05-07T00:23:33;23.30;50.70
15983;DHT22;14442;50.196;8.096;2023-05-07T00:26:00;23.30;50.70
15983;DHT22;14442;50.196;8.096;2023-05-07T00:28:26;23.30;50.70
15983;DHT22;14442;50.196;8.096;2023-05-07T00:30:53;23.30;50.70
15983;DHT22;14442;50.196;8.096;2023-05-07T00:33:20;23.20;50.70
15983;DHT22;14442;50.196;8.096;2023-05-07T00:35:47;23.20;50.60
15983;DHT22;14442;50.196;8.096;2023-05-07T00:38:15;23.20;51.30
15983;DHT22;14442;50.196;8.096;2023-05-07T00:40:42;23.20;50.70
15983;DHT22;14442;50.196;8.096;2023-05-07T00:43:09;23.20;50.70
15983;DHT22;14442;50.196;8.096;2023-05-07T00:45:36;23.20;50.70
15983;DHT22;14442;50.196;8.096;2023-05-07T00:48:03;23.20;50.70
15983;DHT22;14442;50.196;8.096;2023-05-07T00:50:31;23.20;50.70
15983;DHT22;14442;50.196;8.096;2023-05-07T00:52:58;23.20;50.70
15983;DHT22;14442;50.196;8.096;2023-05-07T00:55:27;23.10;50.60
15983;DHT22;14442;50.196;8.096;2023-05-07T00:57:54;23.10;50.60
15983;DHT22;14442;50.196;8.096;2023-05-07T01:00:21;23.10;50.60
15983;DHT22;14442;50.196;8.096;2023-05-07T01:02:47;23.10;50.60
15983;DHT22;14442;50.196;8.096;2023-05-07T01:05:16;23.10;50.60
15983;DHT22;14442;50.196;8.096;2023-05-07T01:07:43;23.10;50.60
15983;DHT22;14442;50.196;8.096;2023-05-07T01:10:11;23.10;50.60
15983;DHT22;14442;50.196;8.096;2023-05-07T01:12:40;23.10;50.60
15983;DHT22;14442;50.196;8.096;2023-05-07T01:15:08;23.10;50.60
15983;DHT22;14442;50.196;8.096;2023-05-07T01:17:36;23.10;50.70
15983;DHT22;14442;50.196;8.096;2023-05-07T01:20:05;23.10;50.60
15983;DHT22;14442;50.196;8.096;2023-05-07T01:22:34;23.10;50.70
15983;DHT22;14442;50.196;8.096;2023-05-07T01:25:02;23.10;50.70
15983;DHT22;14442;50.196;8.096;2023-05-07T01:27:29;23.00;50.60
15983;DHT22;14442;50.196;8.096;2023-05-07T01:29:56;23.00;50.60
15983;DHT22;14442;50.196;8.096;2023-05-07T01:32:27;23.00;50.60
15983;DHT22;14442;50.196;8.096;2023-05-07T01:34:55;23.00;50.60
15983;DHT22;14442;50.196;8.096;2023-05-07T01:37:23;23.00;50.60
15983;DHT22;14442;50.196;8.096;2023-05-07T01:39:52;23.00;50.60
15983;DHT22;14442;50.196;8.096;2023-05-07T01:42:20;23.00;50.60
15983;DHT22;14442;50.196;8.096;2023-05-07T01:44:47;23.00;50.60
15983;DHT22;14442;50.196;8.096;2023-05-07T01:47:14;23.00;50.60
15983;DHT22;14442;50.196;8.096;2023-05-07T01:49:42;23.00;50.70
15983;DHT22;14442;50.196;8.096;2023-05-07T01:52:10;22.90;50.60
15983;DHT22;14442;50.196;8.096;2023-05-07T01:54:37;23.00;50.70
15983;DHT22;14442;50.196;8.096;2023-05-07T01:57:05;23.00;50.70
15983;DHT22;14442;50.196;8.096;2023-05-07T01:59:31;23.00;50.70
15983;DHT22;14442;50.196;8.096;2023-05-07T02:01:58;23.00;50.70
15983;DHT22;14442;50.196;8.096;2023-05-07T02:04:26;22.90;50.60
15983;DHT22;14442;50.196;8.096;2023-05-07T02:06:52;22.90;50.60
15983;DHT22;14442;50.196;8.096;2023-05-07T02:09:19;22.90;50.60
15983;DHT22;14442;50.196;8.096;2023-05-07T02:11:45;22.90;50.60
15983;DHT22;14442;50.196;8.096;2023-05-07T02:14:13;22.90;50.60
15983;DHT22;14442;50.196;8.096;2023-05-07T02:16:40;22.90;50.60
15983;DHT22;14442;50.196;8.096;2023-05-07T02:19:07;22.90;50.60
15983;DHT22;14442;50.196;8.096;2023-05-07T02:21:34;22.90;50.60
15983;DHT22;14442;50.196;8.096;2023-05-07T02:24:00;22.90;50.60
15983;DHT22;14442;50.196;8.096;2023-05-07T02:26:27;22.90;50.60
15983;DHT22;14442;50.196;8.096;2023-05-07T02:28:54;22.90;50.60
15983;DHT22;14442;50.196;8.096;2023-05-07T02:31:22;22.90;50.60
15983;DHT22;14442;50.196;8.096;2023-05-07T02:33:48;22.90;50.70
15983;DHT22;14442;50.196;8.096;2023-05-07T02:36:15;22.80;50.60
15983;DHT22;14442;50.196;8.096;2023-05-07T02:38:42;22.90;50.70
15983;DHT22;14442;50.196;8.096;2023-05-07T02:41:08;22.80;50.60
15983;DHT22;14442;50.196;8.096;2023-05-07T02:43:35;22.80;50.60
15983;DHT22;14442;50.196;8.096;2023-05-07T02:46:02;22.80;50.60
15983;DHT22;14442;50.196;8.096;2023-05-07T02:48:31;22.80;50.60
15983;DHT22;14442;50.196;8.096;2023-05-07T02:50:58;22.80;50.60
15983;DHT22;14442;50.196;8.096;2023-05-07T02:53:25;22.80;50.70
15983;DHT22;14442;50.196;8.096;2023-05-07T02:55:52;22.80;50.70
15983;DHT22;14442;50.196;8.096;2023-05-07T02:58:19;22.80;50.70
15983;DHT22;14442;50.196;8.096;2023-05-07T03:00:47;22.80;50.60
15983;DHT22;14442;50.196;8.096;2023-05-07T03:03:14;22.80;50.70
15983;DHT22;14442;50.196;8.096;2023-05-07T03:05:42;22.80;50.60
15983;DHT22;14442;50.196;8.096;2023-05-07T03:08:09;22.80;50.60
15983;DHT22;14442;50.196;8.096;2023-05-07T03:10:36;22.80;50.70
15983;DHT22;14442;50.196;8.096;2023-05-07T03:13:05;22.70;50.60
15983;DHT22;14442;50.196;8.096;2023-05-07T03:15:31;22.70;50.60
15983;DHT22;14442;50.196;8.096;2023-05-07T03:17:58;22.70;50.60
15983;DHT22;14442;50.196;8.096;2023-05-07T03:20:25;22.70;50.60
15983;DHT22;14442;50.196;8.096;2023-05-07T03:22:53;22.70;50.60
15983;DHT22;14442;50.196;8.096;2023-05-07T03:25:19;22.70;50.60
15983;DHT22;14442;50.196;8.096;2023-05-07T03:27:46;22.70;50.60
15983;DHT22;14442;50.196;8.096;2023-05-07T03:30:13;22.70;50.60
15983;DHT22;14442;50.196;8.096;2023-05-07T03:32:40;22.70;50.60
15983;DHT22;14442;50.196;8.096;2023-05-07T03:35:07;22.70;50.60
15983;DHT22;14442;50.196;8.096;2023-05-07T03:37:33;22.70;50.70
15983;DHT22;14442;50.196;8.096;2023-05-07T03:40:01;22.70;50.60
15983;DHT22;14442;50.196;8.096;2023-05-07T03:42:29;22.70;50.60
15983;DHT22;14442;50.196;8.096;2023-05-07T03:44:55;22.70;50.60
15983;DHT22;14442;50.196;8.096;2023-05-07T03:47:22;22.70;50.70
15983;DHT22;14442;50.196;8.096;2023-05-07T03:49:49;22.70;50.70
15983;DHT22;14442;50.196;8.096;2023-05-07T03:52:15;22.70;50.70
15983;DHT22;14442;50.196;8.096;2023-05-07T03:54:48;22.70;50.70
15983;DHT22;14442;50.196;8.096;2023-05-07T03:57:16;22.60;50.60
15983;DHT22;14442;50.196;8.096;2023-05-07T03:59:43;22.60;50.60
15983;DHT22;14442;50.196;8.096;2023-05-07T04:02:09;22.60;50.60
15983;DHT22;14442;50.196;8.096;2023-05-07T04:04:36;22.60;50.60
15983;DHT22;14442;50.196;8.096;2023-05-07T04:07:02;22.60;50.60
15983;DHT22;14442;50.196;8.096;2023-05-07T04:09:29;22.60;50.60
15983;DHT22;14442;50.196;8.096;2023-05-07T04:11:56;22.60;50.60
15983;DHT22;14442;50.196;8.096;2023-05-07T04:14:24;22.60;50.60
15983;DHT22;14442;50.196;8.096;2023-05-07T04:16:51;22.60;50.60
15983;DHT22;14442;50.196;8.096;2023-05-07T04:19:17;22.60;50.60
15983;DHT22;14442;50.196;8.096;2023-05-07T04:21:44;22.60;50.60
15983;DHT22;14442;50.196;8.096;2023-05-07T04:24:10;22.60;50.60
15983;DHT22;14442;50.196;8.096;2023-05-07T04:26:37;22.60;50.60
15983;DHT22;14442;50.196;8.096;2023-05-07T04:29:04;22.60;50.60
15983;DHT22;14442;50.196;8.096;2023-05-07T04:31:32;22.60;50.60
15983;DHT22;14442;50.196;8.096;2023-05-07T04:33:59;22.60;50.60
15983;DHT22;14442;50.196;8.096;2023-05-07T04:36:26;22.60;50.60
15983;DHT22;14442;50.196;8.096;2023-05-07T04:38:54;22.60;50.60
15983;DHT22;14442;50.196;8.096;2023-05-07T04:41:21;22.60;50.60
15983;DHT22;14442;50.196;8.096;2023-05-07T04:43:47;22.60;50.60
15983;DHT22;14442;50.196;8.096;2023-05-07T04:46:14;22.60;50.60
15983;DHT22;14442;50.196;8.096;2023-05-07T04:48:42;22.60;50.60
15983;DHT22;14442;50.196;8.096;2023-05-07T04:51:09;22.60;50.60
15983;DHT22;14442;50.196;8.096;2023-05-07T04:53:36;22.60;50.70
15983;DHT22;14442;50.196;8.096;2023-05-07T04:56:03;22.60;50.60
15983;DHT22;14442;50.196;8.096;2023-05-07T04:58:30;22.60;50.70
15983;DHT22;14442;50.196;8.096;2023-05-07T05:00:57;22.60;50.60
15983;DHT22;14442;50.196;8.096;2023-05-07T05:03:24;22.50;50.50
15983;DHT22;14442;50.196;8.096;2023-05-07T05:05:52;22.60;50.60
15983;DHT22;14442;50.196;8.096;2023-05-07T05:08:19;22.60;50.70
15983;DHT22;14442;50.196;8.096;2023-05-07T05:10:45;22.60;50.60
15983;DHT22;14442;50.196;8.096;2023-05-07T05:13:14;22.60;50.60
15983;DHT22;14442;50.196;8.096;2023-05-07T05:15:40;22.60;50.70
15983;DHT22;14442;50.196;8.096;2023-05-07T05:18:07;22.50;50.60
15983;DHT22;14442;50.196;8.096;2023-05-07T05:20:33;22.50;50.50
15983;DHT22;14442;50.196;8.096;2023-05-07T05:23:01;22.50;50.50
15983;DHT22;14442;50.196;8.096;2023-05-07T05:25:28;22.50;50.50
15983;DHT22;14442;50.196;8.096;2023-05-07T05:27:55;22.50;50.60
15983;DHT22;14442;50.196;8.096;2023-05-07T05:30:22;22.60;50.60
15983;DHT22;14442;50.196;8.096;2023-05-07T05:32:48;22.50;50.50
15983;DHT22;14442;50.196;8.096;2023-05-07T05:35:15;22.50;50.50
15983;DHT22;14442;50.196;8.096;2023-05-07T05:37:42;22.50;50.60
15983;DHT22;14442;50.196;8.096;2023-05-07T05:40:11;22.60;50.60
15983;DHT22;14442;50.196;8.096;2023-05-07T05:42:37;22.50;50.50
15983;DHT22;14442;50.196;8.096;2023-05-07T05:45:05;22.50;50.50
15983;DHT22;14442;50.196;8.096;2023-05-07T05:47:32;22.50;50.50
15983;DHT22;14442;50.196;8.096;2023-05-07T05:50:00;22.50;50.50
15983;DHT22;14442;50.196;8.096;2023-05-07T05:52:26;22.50;50.50
15983;DHT22;14442;50.196;8.096;2023-05-07T05:54:53;22.60;50.60
15983;DHT22;14442;50.196;8.096;2023-05-07T05:57:21;22.50;50.60
15983;DHT22;14442;50.196;8.096;2023-05-07T05:59:48;22.50;50.50
15983;DHT22;14442;50.196;8.096;2023-05-07T06:02:15;22.50;50.50
15983;DHT22;14442;50.196;8.096;2023-05-07T06:04:41;22.50;50.50
15983;DHT22;14442;50.196;8.096;2023-05-07T06:07:08;22.50;50.50
15983;DHT22;14442;50.196;8.096;2023-05-07T06:09:35;22.50;50.60
15983;DHT22;14442;50.196;8.096;2023-05-07T06:12:02;22.50;50.50
15983;DHT22;14442;50.196;8.096;2023-05-07T06:14:30;22.50;50.50
15983;DHT22;14442;50.196;8.096;2023-05-07T06:16:56;22.50;50.50
15983;DHT22;14442;50.196;8.096;2023-05-07T06:19:23;22.50;50.50
15983;DHT22;14442;50.196;8.096;2023-05-07T06:21:52;22.50;50.40
15983;DHT22;14442;50.196;8.096;2023-05-07T06:24:18;22.50;50.40
15983;DHT22;14442;50.196;8.096;2023-05-07T06:26:45;22.60;50.50
15983;DHT22;14442;50.196;8.096;2023-05-07T06:29:11;22.50;50.40
15983;DHT22;14442;50.196;8.096;2023-05-07T06:31:39;22.60;50.50
15983;DHT22;14442;50.196;8.096;2023-05-07T06:34:07;22.60;50.50
15983;DHT22;14442;50.196;8.096;2023-05-07T06:36:34;22.60;50.50
15983;DHT22;14442;50.196;8.096;2023-05-07T06:39:01;22.60;50.50
15983;DHT22;14442;50.196;8.096;2023-05-07T06:41:28;22.60;50.50
15983;DHT22;14442;50.196;8.096;2023-05-07T06:43:54;22.60;50.50
15983;DHT22;14442;50.196;8.096;2023-05-07T06:46:21;22.50;50.40
15983;DHT22;14442;50.196;8.096;2023-05-07T06:48:49;22.60;50.90
15983;DHT22;14442;50.196;8.096;2023-05-07T06:51:16;22.60;51.20
15983;DHT22;14442;50.196;8.096;2023-05-07T06:53:42;22.70;51.20
15983;DHT22;14442;50.196;8.096;2023-05-07T06:56:09;22.70;51.00
15983;DHT22;14442;50.196;8.096;2023-05-07T06:58:36;22.70;50.90
15983;DHT22;14442;50.196;8.096;2023-05-07T07:01:03;22.70;50.90
15983;DHT22;14442;50.196;8.096;2023-05-07T07:03:30;22.70;50.90
15983;DHT22;14442;50.196;8.096;2023-05-07T07:05:58;22.70;50.80
15983;DHT22;14442;50.196;8.096;2023-05-07T07:08:25;22.70;50.80
15983;DHT22;14442;50.196;8.096;2023-05-07T07:10:51;22.70;50.90
15983;DHT22;14442;50.196;8.096;2023-05-07T07:13:18;22.70;50.90
15983;DHT22;14442;50.196;8.096;2023-05-07T07:15:45;22.70;50.80
15983;DHT22;14442;50.196;8.096;2023-05-07T07:18:11;22.70;50.70
15983;DHT22;14442;50.196;8.096;2023-05-07T07:20:38;22.80;50.80
15983;DHT22;14442;50.196;8.096;2023-05-07T07:23:06;22.80;50.80
15983;DHT22;14442;50.196;8.096;2023-05-07T07:25:33;22.90;50.90
15983;DHT22;14442;50.196;8.096;2023-05-07T07:27:59;22.90;50.90
15983;DHT22;14442;50.196;8.096;2023-05-07T07:30:26;22.90;51.10
15983;DHT22;14442;50.196;8.096;2023-05-07T07:32:53;23.00;51.40
15983;DHT22;14442;50.196;8.096;2023-05-07T07:35:20;23.10;51.70
15983;DHT22;14442;50.196;8.096;2023-05-07T07:37:48;23.10;51.60
15983;DHT22;14442;50.196;8.096;2023-05-07T07:40:16;23.10;51.70
15983;DHT22;14442;50.196;8.096;2023-05-07T07:42:43;23.20;52.10
15983;DHT22;14442;50.196;8.096;2023-05-07T07:45:10;23.20;52.40
15983;DHT22;14442;50.196;8.096;2023-05-07T07:47:37;23.30;52.60
15983;DHT22;14442;50.196;8.096;2023-05-07T07:50:04;23.30;52.40
15983;DHT22;14442;50.196;8.096;2023-05-07T07:52:32;23.30;52.40
15983;DHT22;14442;50.196;8.096;2023-05-07T07:54:59;23.30;52.50
15983;DHT22;14442;50.196;8.096;2023-05-07T07:57:27;23.20;52.30
15983;DHT22;14442;50.196;8.096;2023-05-07T07:59:53;23.20;52.30
15983;DHT22;14442;50.196;8.096;2023-05-07T08:02:20;23.10;52.40
15983;DHT22;14442;50.196;8.096;2023-05-07T08:04:46;23.20;52.60
15983;DHT22;14442;50.196;8.096;2023-05-07T08:07:13;23.20;52.50
15983;DHT22;14442;50.196;8.096;2023-05-07T08:09:40;23.20;52.60
15983;DHT22;14442;50.196;8.096;2023-05-07T08:12:07;23.20;52.50
15983;DHT22;14442;50.196;8.096;2023-05-07T08:14:35;23.20;52.60
15983;DHT22;14442;50.196;8.096;2023-05-07T08:17:02;23.20;52.50
15983;DHT22;14442;50.196;8.096;2023-05-07T08:19:29;23.20;52.50
15983;DHT22;14442;50.196;8.096;2023-05-07T08:21:56;23.20;52.60
15983;DHT22;14442;50.196;8.096;2023-05-07T08:24:22;23.20;52.50
15983;DHT22;14442;50.196;8.096;2023-05-07T08:26:49;23.20;52.50
15983;DHT22;14442;50.196;8.096;2023-05-07T08:29:16;23.20;52.70
15983;DHT22;14442;50.196;8.096;2023-05-07T08:31:44;23.30;53.10
15983;DHT22;14442;50.196;8.096;2023-05-07T08:34:10;23.20;53.20
15983;DHT22;14442;50.196;8.096;2023-05-07T08:36:37;23.20;53.00
15983;DHT22;14442;50.196;8.096;2023-05-07T08:39:04;23.20;53.30
15983;DHT22;14442;50.196;8.096;2023-05-07T08:41:31;23.30;53.30
15983;DHT22;14442;50.196;8.096;2023-05-07T08:43:58;23.30;53.50
15983;DHT22;14442;50.196;8.096;2023-05-07T08:46:25;23.40;53.30
15983;DHT22;14442;50.196;8.096;2023-05-07T08:48:54;23.40;53.40
15983;DHT22;14442;50.196;8.096;2023-05-07T08:51:21;23.40;53.30
15983;DHT22;14442;50.196;8.096;2023-05-07T08:53:49;23.50;53.50
15983;DHT22;14442;50.196;8.096;2023-05-07T08:56:17;23.50;53.40
15983;DHT22;14442;50.196;8.096;2023-05-07T08:58:45;23.60;53.40
15983;DHT22;14442;50.196;8.096;2023-05-07T09:01:14;23.60;53.30
15983;DHT22;14442;50.196;8.096;2023-05-07T09:03:42;23.60;53.30
15983;DHT22;14442;50.196;8.096;2023-05-07T09:06:11;23.60;53.20
15983;DHT22;14442;50.196;8.096;2023-05-07T09:08:38;23.60;53.30
15983;DHT22;14442;50.196;8.096;2023-05-07T09:11:05;23.60;53.40
15983;DHT22;14442;50.196;8.096;2023-05-07T09:13:31;23.60;53.10
15983;DHT22;14442;50.196;8.096;2023-05-07T09:16:01;23.60;53.10
15983;DHT22;14442;50.196;8.096;2023-05-07T09:18:40;23.60;53.10
15983;DHT22;14442;50.196;8.096;2023-05-07T09:21:11;23.60;53.20
15983;DHT22;14442;50.196;8.096;2023-05-07T09:23:38;23.60;53.30
15983;DHT22;14442;50.196;8.096;2023-05-07T09:26:06;23.60;53.30
15983;DHT22;14442;50.196;8.096;2023-05-07T09:28:38;23.60;53.10
15983;DHT22;14442;50.196;8.096;2023-05-07T09:31:05;23.60;53.10
15983;DHT22;14442;50.196;8.096;2023-05-07T09:33:31;23.70;53.10
15983;DHT22;14442;50.196;8.096;2023-05-07T09:35:58;23.70;52.90
15983;DHT22;14442;50.196;8.096;2023-05-07T09:38:29;23.70;52.90
15983;DHT22;14442;50.196;8.096;2023-05-07T09:41:03;23.70;52.90
15983;DHT22;14442;50.196;8.096;2023-05-07T09:43:32;23.70;52.90
15983;DHT22;14442;50.196;8.096;2023-05-07T09:46:02;23.80;52.90
15983;DHT22;14442;50.196;8.096;2023-05-07T09:48:30;23.90;53.10
15983;DHT22;14442;50.196;8.096;2023-05-07T09:51:00;23.90;52.80
15983;DHT22;14442;50.196;8.096;2023-05-07T09:53:30;23.90;53.00
15983;DHT22;14442;50.196;8.096;2023-05-07T09:55:58;23.80;52.70
15983;DHT22;14442;50.196;8.096;2023-05-07T09:58:26;23.80;52.60
15983;DHT22;14442;50.196;8.096;2023-05-07T10:00:53;23.90;52.60
15983;DHT22;14442;50.196;8.096;2023-05-07T10:03:20;23.90;52.60
15983;DHT22;14442;50.196;8.096;2023-05-07T10:05:49;23.90;52.60
15983;DHT22;14442;50.196;8.096;2023-05-07T10:08:16;23.90;52.60
15983;DHT22;14442;50.196;8.096;2023-05-07T10:10:47;23.90;52.50
15983;DHT22;14442;50.196;8.096;2023-05-07T10:13:13;23.90;53.10
15983;DHT22;14442;50.196;8.096;2023-05-07T10:15:40;23.90;52.50
15983;DHT22;14442;50.196;8.096;2023-05-07T10:18:08;23.90;52.40
15983;DHT22;14442;50.196;8.096;2023-05-07T10:20:36;23.90;52.40
15983;DHT22;14442;50.196;8.096;2023-05-07T10:23:04;23.90;52.30
15983;DHT22;14442;50.196;8.096;2023-05-07T10:25:32;23.90;52.40
15983;DHT22;14442;50.196;8.096;2023-05-07T10:28:04;23.90;52.40
15983;DHT22;14442;50.196;8.096;2023-05-07T10:30:40;23.90;52.50
15983;DHT22;14442;50.196;8.096;2023-05-07T10:33:13;24.00;52.60
15983;DHT22;14442;50.196;8.096;2023-05-07T10:35:41;24.00;52.50
15983;DHT22;14442;50.196;8.096;2023-05-07T10:38:09;24.00;52.60
15983;DHT22;14442;50.196;8.096;2023-05-07T10:40:36;24.00;52.50
15983;DHT22;14442;50.196;8.096;2023-05-07T10:43:05;24.00;52.70
15983;DHT22;14442;50.196;8.096;2023-05-07T10:45:32;24.00;52.70
15983;DHT22;14442;50.196;8.096;2023-05-07T10:48:09;24.00;52.70
15983;DHT22;14442;50.196;8.096;2023-05-07T10:50:37;24.00;52.60
15983;DHT22;14442;50.196;8.096;2023-05-07T10:53:25;24.10;52.70
15983;DHT22;14442;50.196;8.096;2023-05-07T10:58:51;24.10;52.30
15983;DHT22;14442;50.196;8.096;2023-05-07T11:01:50;24.10;52.40
15983;DHT22;14442;50.196;8.096;2023-05-07T11:04:17;24.20;52.40
15983;DHT22;14442;50.196;8.096;2023-05-07T11:10:02;24.30;52.00
15983;DHT22;14442;50.196;8.096;2023-05-07T11:13:03;24.40;51.90
15983;DHT22;14442;50.196;8.096;2023-05-07T11:15:43;24.50;51.90
15983;DHT22;14442;50.196;8.096;2023-05-07T11:18:14;24.50;51.60
15983;DHT22;14442;50.196;8.096;2023-05-07T11:20:52;24.50;51.40
15983;DHT22;14442;50.196;8.096;2023-05-07T11:26:43;24.20;51.20
15983;DHT22;14442;50.196;8.096;2023-05-07T11:29:11;24.10;51.20
15983;DHT22;14442;50.196;8.096;2023-05-07T11:31:40;24.00;50.90
15983;DHT22;14442;50.196;8.096;2023-05-07T11:34:06;23.90;51.30
15983;DHT22;14442;50.196;8.096;2023-05-07T11:36:34;24.00;51.30
15983;DHT22;14442;50.196;8.096;2023-05-07T11:39:01;23.90;50.70
15983;DHT22;14442;50.196;8.096;2023-05-07T11:41:34;23.70;50.40
15983;DHT22;14442;50.196;8.096;2023-05-07T11:44:01;23.90;50.60
15983;DHT22;14442;50.196;8.096;2023-05-07T11:46:28;23.80;50.60
15983;DHT22;14442;50.196;8.096;2023-05-07T11:48:57;23.90;50.70
15983;DHT22;14442;50.196;8.096;2023-05-07T11:51:24;23.80;50.50
15983;DHT22;14442;50.196;8.096;2023-05-07T11:53:53;23.80;50.70
15983;DHT22;14442;50.196;8.096;2023-05-07T11:56:20;23.90;50.70
15983;DHT22;14442;50.196;8.096;2023-05-07T11:58:47;23.90;50.70
15983;DHT22;14442;50.196;8.096;2023-05-07T12:01:15;23.80;50.20
15983;DHT22;14442;50.196;8.096;2023-05-07T12:03:44;23.80;50.30
15983;DHT22;14442;50.196;8.096;2023-05-07T12:06:14;23.70;50.40
15983;DHT22;14442;50.196;8.096;2023-05-07T12:08:41;23.70;50.70
15983;DHT22;14442;50.196;8.096;2023-05-07T12:11:09;23.70;50.60
15983;DHT22;14442;50.196;8.096;2023-05-07T12:13:37;23.70;51.50
15983;DHT22;14442;50.196;8.096;2023-05-07T12:16:05;23.80;50.70
15983;DHT22;14442;50.196;8.096;2023-05-07T12:18:34;23.80;51.00
15983;DHT22;14442;50.196;8.096;2023-05-07T12:21:01;23.80;50.60
15983;DHT22;14442;50.196;8.096;2023-05-07T12:23:29;23.90;50.40
15983;DHT22;14442;50.196;8.096;2023-05-07T12:25:56;24.10;50.30
15983;DHT22;14442;50.196;8.096;2023-05-07T12:28:23;24.10;50.10
15983;DHT22;14442;50.196;8.096;2023-05-07T12:30:50;24.20;50.40
15983;DHT22;14442;50.196;8.096;2023-05-07T12:33:18;24.30;50.40
15983;DHT22;14442;50.196;8.096;2023-05-07T12:35:47;24.30;50.20
15983;DHT22;14442;50.196;8.096;2023-05-07T12:38:17;24.40;50.30
15983;DHT22;14442;50.196;8.096;2023-05-07T12:40:47;24.50;50.60
15983;DHT22;14442;50.196;8.096;2023-05-07T12:43:16;24.50;51.30
15983;DHT22;14442;50.196;8.096;2023-05-07T12:45:44;24.50;51.20
15983;DHT22;14442;50.196;8.096;2023-05-07T12:48:11;24.60;51.70
15983;DHT22;14442;50.196;8.096;2023-05-07T12:50:38;24.60;52.10
15983;DHT22;14442;50.196;8.096;2023-05-07T12:53:06;24.60;52.10
15983;DHT22;14442;50.196;8.096;2023-05-07T12:55:41;24.70;51.90
15983;DHT22;14442;50.196;8.096;2023-05-07T12:58:15;24.60;51.70
15983;DHT22;14442;50.196;8.096;2023-05-07T13:00:42;24.60;51.60
15983;DHT22;14442;50.196;8.096;2023-05-07T13:03:09;24.60;51.70
15983;DHT22;14442;50.196;8.096;2023-05-07T13:05:36;24.50;51.80
15983;DHT22;14442;50.196;8.096;2023-05-07T13:08:03;24.50;51.90
15983;DHT22;14442;50.196;8.096;2023-05-07T13:10:30;24.50;51.70
15983;DHT22;14442;50.196;8.096;2023-05-07T13:12:58;24.50;51.70
15983;DHT22;14442;50.196;8.096;2023-05-07T13:15:26;24.50;51.70
15983;DHT22;14442;50.196;8.096;2023-05-07T13:17:53;24.50;51.90
15983;DHT22;14442;50.196;8.096;2023-05-07T13:20:20;24.50;52.00
15983;DHT22;14442;50.196;8.096;2023-05-07T13:22:47;24.50;51.90
15983;DHT22;14442;50.196;8.096;2023-05-07T13:25:13;24.50;51.90
15983;DHT22;14442;50.196;8.096;2023-05-07T13:27:40;24.50;51.90
15983;DHT22;14442;50.196;8.096;2023-05-07T13:30:07;24.50;51.90
15983;DHT22;14442;50.196;8.096;2023-05-07T13:32:35;24.50;51.90
15983;DHT22;14442;50.196;8.096;2023-05-07T13:35:02;24.50;51.90
15983;DHT22;14442;50.196;8.096;2023-05-07T13:37:30;24.50;52.10
15983;DHT22;14442;50.196;8.096;2023-05-07T13:39:56;24.40;51.90
15983;DHT22;14442;50.196;8.096;2023-05-07T13:42:23;24.40;52.00
15983;DHT22;14442;50.196;8.096;2023-05-07T13:44:49;24.40;52.20
15983;DHT22;14442;50.196;8.096;2023-05-07T13:47:16;24.40;52.10
15983;DHT22;14442;50.196;8.096;2023-05-07T13:49:44;24.40;52.10
15983;DHT22;14442;50.196;8.096;2023-05-07T13:52:11;24.40;52.00
15983;DHT22;14442;50.196;8.096;2023-05-07T13:54:38;24.50;52.10
15983;DHT22;14442;50.196;8.096;2023-05-07T13:57:04;24.50;52.30
15983;DHT22;14442;50.196;8.096;2023-05-07T13:59:31;24.50;52.50
15983;DHT22;14442;50.196;8.096;2023-05-07T14:01:58;24.50;52.40
15983;DHT22;14442;50.196;8.096;2023-05-07T14:04:24;24.50;52.30
15983;DHT22;14442;50.196;8.096;2023-05-07T14:06:53;24.50;52.10
15983;DHT22;14442;50.196;8.096;2023-05-07T14:09:20;24.50;52.30
15983;DHT22;14442;50.196;8.096;2023-05-07T14:11:46;24.60;52.40
15983;DHT22;14442;50.196;8.096;2023-05-07T14:14:16;24.60;52.70
15983;DHT22;14442;50.196;8.096;2023-05-07T14:16:43;24.70;52.70
15983;DHT22;14442;50.196;8.096;2023-05-07T14:19:10;24.70;52.40
15983;DHT22;14442;50.196;8.096;2023-05-07T14:21:36;24.80;52.40
15983;DHT22;14442;50.196;8.096;2023-05-07T14:24:06;24.80;52.10
15983;DHT22;14442;50.196;8.096;2023-05-07T14:26:33;24.90;52.10
15983;DHT22;14442;50.196;8.096;2023-05-07T14:28:59;24.90;51.70
15983;DHT22;14442;50.196;8.096;2023-05-07T14:31:26;25.00;51.90
15983;DHT22;14442;50.196;8.096;2023-05-07T14:33:53;25.00;51.90
15983;DHT22;14442;50.196;8.096;2023-05-07T14:36:20;25.00;51.80
15983;DHT22;14442;50.196;8.096;2023-05-07T14:38:48;24.90;52.10
15983;DHT22;14442;50.196;8.096;2023-05-07T14:41:16;24.90;52.50
15983;DHT22;14442;50.196;8.096;2023-05-07T14:43:43;24.90;52.40
15983;DHT22;14442;50.196;8.096;2023-05-07T14:46:15;24.80;52.10
15983;DHT22;14442;50.196;8.096;2023-05-07T14:48:43;24.80;51.60
15983;DHT22;14442;50.196;8.096;2023-05-07T14:51:09;24.80;51.60
15983;DHT22;14442;50.196;8.096;2023-05-07T14:53:36;24.80;51.50
15983;DHT22;14442;50.196;8.096;2023-05-07T14:56:03;24.80;51.60
15983;DHT22;14442;50.196;8.096;2023-05-07T14:58:31;24.80;51.50
15983;DHT22;14442;50.196;8.096;2023-05-07T15:00:58;24.90;51.70
15983;DHT22;14442;50.196;8.096;2023-05-07T15:03:25;24.90;51.60
15983;DHT22;14442;50.196;8.096;2023-05-07T15:05:52;24.90;51.70
15983;DHT22;14442;50.196;8.096;2023-05-07T15:08:19;24.80;52.20
15983;DHT22;14442;50.196;8.096;2023-05-07T15:10:45;24.90;51.50
15983;DHT22;14442;50.196;8.096;2023-05-07T15:13:12;24.90;51.30
15983;DHT22;14442;50.196;8.096;2023-05-07T15:15:42;24.90;51.20
15983;DHT22;14442;50.196;8.096;2023-05-07T15:18:09;24.90;51.20
15983;DHT22;14442;50.196;8.096;2023-05-07T15:20:36;24.90;51.10
15983;DHT22;14442;50.196;8.096;2023-05-07T15:23:03;24.90;50.90
15983;DHT22;14442;50.196;8.096;2023-05-07T15:25:30;25.00;50.80
15983;DHT22;14442;50.196;8.096;2023-05-07T15:27:59;24.90;50.70
15983;DHT22;14442;50.196;8.096;2023-05-07T15:30:25;24.90;51.00
15983;DHT22;14442;50.196;8.096;2023-05-07T15:32:54;24.90;51.00
15983;DHT22;14442;50.196;8.096;2023-05-07T15:35:21;24.80;50.90
15983;DHT22;14442;50.196;8.096;2023-05-07T15:37:47;24.80;50.90
15983;DHT22;14442;50.196;8.096;2023-05-07T15:40:15;24.80;50.80
15983;DHT22;14442;50.196;8.096;2023-05-07T15:42:44;24.70;50.90